createdAt,value
2022-09-20T00:01:21.091Z,9.90
2022-09-20T00:03:50.391Z,9.90
2022-09-20T00:06:21.000Z,9.90
2022-09-20T00:08:49.010Z,9.90
2022-09-20T00:11:22.507Z,9.90
2022-09-20T00:13:51.551Z,9.90
2022-09-20T00:16:22.071Z,9.90
2022-09-20T00:18:53.876Z,9.90
2022-09-20T00:21:23.950Z,10.00
2022-09-20T00:23:52.347Z,10.00
2022-09-20T00:26:19.472Z,9.90
2022-09-20T00:28:47.288Z,10.00
2022-09-20T00:31:15.478Z,10.00
2022-09-20T00:34:01.248Z,9.90
2022-09-20T00:36:28.439Z,10.00
2022-09-20T00:39:00.491Z,9.90
2022-09-20T00:41:28.159Z,9.90
2022-09-20T00:43:56.208Z,9.90
2022-09-20T00:46:39.830Z,9.90
2022-09-20T00:49:16.380Z,10.00
2022-09-20T00:51:47.360Z,10.00
2022-09-20T00:54:20.309Z,9.90
2022-09-20T00:56:48.604Z,10.00
2022-09-20T00:59:19.956Z,9.90
2022-09-20T01:01:52.452Z,9.90
2022-09-20T01:04:21.933Z,9.90
2022-09-20T01:06:51.067Z,9.80
2022-09-20T01:09:17.869Z,9.80
2022-09-20T01:11:45.654Z,9.80
2022-09-20T01:14:14.679Z,9.70
2022-09-20T01:16:41.748Z,9.70
2022-09-20T01:19:22.528Z,9.70
2022-09-20T01:21:49.552Z,9.70
2022-09-20T01:24:33.839Z,9.60
2022-09-20T01:27:00.671Z,9.60
2022-09-20T01:30:11.901Z,9.50
2022-09-20T01:33:09.102Z,9.60
2022-09-20T01:35:36.724Z,9.50
2022-09-20T01:38:19.007Z,9.50
2022-09-20T01:41:11.197Z,9.50
2022-09-20T01:43:55.440Z,9.60
2022-09-20T01:46:33.446Z,9.60
2022-09-20T01:49:38.565Z,9.60
2022-09-20T01:52:29.830Z,9.70
2022-09-20T01:55:21.660Z,9.70
2022-09-20T01:58:06.682Z,9.70
2022-09-20T02:00:52.859Z,9.80
2022-09-20T02:03:57.688Z,9.80
2022-09-20T02:07:01.464Z,9.90
2022-09-20T02:09:40.033Z,9.90
2022-09-20T02:12:25.654Z,9.90
2022-09-20T02:15:03.724Z,10.00
2022-09-20T02:17:45.809Z,10.00
2022-09-20T02:20:22.361Z,10.10
2022-09-20T02:23:08.055Z,10.10
2022-09-20T02:25:50.163Z,10.20
2022-09-20T02:28:34.776Z,10.20
2022-09-20T02:31:29.962Z,10.20
2022-09-20T02:34:18.874Z,10.30
2022-09-20T02:37:12.712Z,10.30
2022-09-20T02:40:16.993Z,10.40
2022-09-20T02:43:02.000Z,10.40
2022-09-20T02:46:00.476Z,10.50
2022-09-20T02:48:42.910Z,10.50
2022-09-20T02:51:44.750Z,10.60
2022-09-20T02:54:39.566Z,10.60
2022-09-20T02:57:23.460Z,10.60
2022-09-20T03:00:02.609Z,10.60
2022-09-20T03:03:07.173Z,10.60
2022-09-20T03:05:55.496Z,10.60
2022-09-20T03:08:47.757Z,10.60
2022-09-20T03:11:32.828Z,10.50
2022-09-20T03:14:26.263Z,10.50
2022-09-20T03:17:04.853Z,10.40
2022-09-20T03:19:47.910Z,10.40
2022-09-20T03:22:14.797Z,10.30
2022-09-20T03:25:07.413Z,10.20
2022-09-20T03:27:55.474Z,10.10
2022-09-20T03:30:28.896Z,10.10
2022-09-20T03:33:27.862Z,10.00
2022-09-20T03:36:09.575Z,10.00
2022-09-20T03:38:48.126Z,9.90
2022-09-20T03:41:32.851Z,9.90
2022-09-20T03:44:27.276Z,9.90
2022-09-20T03:47:07.886Z,9.90
2022-09-20T03:49:54.791Z,9.90
2022-09-20T03:52:58.515Z,10.00
2022-09-20T03:55:53.528Z,9.90
2022-09-20T03:58:29.178Z,10.00
2022-09-20T04:01:04.394Z,10.00
2022-09-20T04:03:44.786Z,10.00
2022-09-20T04:06:38.396Z,9.90
2022-09-20T04:09:17.057Z,9.90
2022-09-20T04:11:51.777Z,9.90
2022-09-20T04:14:31.100Z,9.90
2022-09-20T04:17:03.959Z,9.90
2022-09-20T04:19:47.017Z,9.90
2022-09-20T04:22:14.859Z,9.90
2022-09-20T04:24:56.553Z,9.90
2022-09-20T04:27:29.982Z,9.90
2022-09-20T04:30:05.522Z,9.90
2022-09-20T04:32:44.562Z,10.00
2022-09-20T04:35:54.672Z,10.10
2022-09-20T04:38:22.013Z,10.20
2022-09-20T04:41:16.671Z,10.20
2022-09-20T04:43:55.486Z,10.30
2022-09-20T04:46:37.807Z,10.40
2022-09-20T04:49:29.110Z,10.40
2022-09-20T04:52:10.919Z,10.50
2022-09-20T04:55:19.116Z,10.50
2022-09-20T04:58:17.311Z,10.60
2022-09-20T05:01:02.635Z,10.60
2022-09-20T05:03:56.886Z,10.60
2022-09-20T05:06:46.180Z,10.70
2022-09-20T05:09:24.683Z,10.80
2022-09-20T05:11:54.406Z,10.80
2022-09-20T05:14:40.953Z,10.80
2022-09-20T05:17:25.489Z,10.90
2022-09-20T05:19:58.639Z,11.00
2022-09-20T05:22:39.514Z,11.00
2022-09-20T05:25:38.487Z,11.10
2022-09-20T05:28:15.997Z,11.10
2022-09-20T05:31:05.436Z,11.10
2022-09-20T05:34:05.892Z,11.30
2022-09-20T05:37:12.924Z,11.20
2022-09-20T05:39:45.935Z,11.20
2022-09-20T05:42:44.499Z,11.20
2022-09-20T05:45:43.608Z,11.30
2022-09-20T05:48:13.983Z,11.30
2022-09-20T05:50:55.501Z,11.30
2022-09-20T05:53:40.727Z,11.30
2022-09-20T05:56:41.109Z,11.30
2022-09-20T05:59:46.459Z,11.30
2022-09-20T06:02:22.629Z,11.40
2022-09-20T06:05:24.916Z,11.40
2022-09-20T06:08:21.102Z,11.50
2022-09-20T06:11:25.665Z,11.60
2022-09-20T06:14:17.147Z,11.70
2022-09-20T06:17:22.679Z,11.70
2022-09-20T06:20:11.539Z,11.80
2022-09-20T06:22:56.975Z,11.90
2022-09-20T06:25:31.213Z,12.00
2022-09-20T06:28:11.458Z,12.00
2022-09-20T06:30:43.729Z,12.10
2022-09-20T06:33:24.172Z,12.10
2022-09-20T06:36:23.926Z,12.10
2022-09-20T06:39:18.961Z,12.10
2022-09-20T06:41:46.176Z,12.20
2022-09-20T06:44:12.940Z,12.10
2022-09-20T06:46:41.654Z,12.10
2022-09-20T06:49:09.612Z,12.20
2022-09-20T06:51:38.986Z,12.20
2022-09-20T06:54:14.945Z,12.20
2022-09-20T06:56:43.663Z,12.30
2022-09-20T06:59:11.519Z,12.40
2022-09-20T07:01:38.945Z,12.40
2022-09-20T07:04:09.813Z,12.60
2022-09-20T07:06:36.708Z,12.70
2022-09-20T07:09:04.377Z,12.90
2022-09-20T07:11:32.713Z,13.00
2022-09-20T07:13:59.671Z,13.10
2022-09-20T07:16:26.995Z,13.30
2022-09-20T07:18:53.960Z,13.30
2022-09-20T07:21:22.180Z,13.40
2022-09-20T07:23:49.131Z,13.80
2022-09-20T07:26:28.426Z,14.20
2022-09-20T07:28:56.479Z,14.50
2022-09-20T07:31:26.121Z,14.70
2022-09-20T07:33:53.295Z,14.80
2022-09-20T07:36:20.352Z,15.00
2022-09-20T07:38:48.932Z,15.10
2022-09-20T07:41:17.048Z,15.10
2022-09-20T07:43:43.711Z,15.20
2022-09-20T07:46:13.586Z,15.10
2022-09-20T07:48:41.322Z,15.10
2022-09-20T07:51:11.169Z,15.00
2022-09-20T07:53:38.495Z,15.00
2022-09-20T07:56:14.032Z,14.90
2022-09-20T07:58:41.982Z,15.00
2022-09-20T08:01:11.197Z,15.10
2022-09-20T08:03:38.195Z,15.10
2022-09-20T08:06:10.290Z,15.10
2022-09-20T08:08:40.673Z,15.30
2022-09-20T08:11:13.454Z,15.40
2022-09-20T08:16:30.816Z,16.00
2022-09-20T08:19:00.316Z,16.60
2022-09-20T08:21:31.836Z,17.10
2022-09-20T08:23:59.600Z,17.40
2022-09-20T08:26:27.798Z,17.50
2022-09-20T08:28:56.930Z,17.50
2022-09-20T08:31:26.020Z,17.50
2022-09-20T08:33:54.271Z,17.60
2022-09-20T08:36:24.396Z,17.60
2022-09-20T08:41:48.118Z,17.60
2022-09-20T08:44:35.768Z,17.50
2022-09-20T08:47:25.136Z,17.40
2022-09-20T08:49:57.401Z,17.40
2022-09-20T08:52:37.022Z,17.30
2022-09-20T08:55:13.631Z,17.30
2022-09-20T08:57:40.467Z,17.20
2022-09-20T09:00:12.956Z,17.20
2022-09-20T09:02:40.128Z,17.00
2022-09-20T09:05:31.727Z,16.90
2022-09-20T09:08:04.651Z,17.00
2022-09-20T09:10:42.703Z,16.90
2022-09-20T09:13:22.188Z,17.00
2022-09-20T09:15:57.304Z,17.20
2022-09-20T09:18:32.380Z,17.40
2022-09-20T09:21:00.710Z,17.70
2022-09-20T09:23:27.943Z,18.00
2022-09-20T09:25:55.967Z,18.40
2022-09-20T09:28:29.575Z,18.60
2022-09-20T09:31:22.300Z,18.70
2022-09-20T09:33:49.479Z,18.70
2022-09-20T09:36:22.737Z,18.60
2022-09-20T09:38:50.034Z,18.70
2022-09-20T09:41:34.478Z,18.60
2022-09-20T09:44:33.307Z,18.60
2022-09-20T09:47:00.696Z,18.60
2022-09-20T09:49:35.885Z,18.60
2022-09-20T09:52:14.965Z,18.50
2022-09-20T09:54:48.946Z,18.50
2022-09-20T09:57:24.331Z,18.40
2022-09-20T10:00:06.360Z,18.30
2022-09-20T10:03:06.935Z,18.40
2022-09-20T10:05:38.470Z,18.40
2022-09-20T10:08:20.655Z,18.40
2022-09-20T10:11:09.084Z,18.40
2022-09-20T10:14:07.836Z,18.40
2022-09-20T10:16:56.407Z,18.50
2022-09-20T10:19:35.680Z,18.40
2022-09-20T10:23:21.384Z,18.20
2022-09-20T10:25:50.607Z,18.00
2022-09-20T10:28:48.515Z,17.80
2022-09-20T10:31:50.706Z,17.80
2022-09-20T10:34:27.160Z,17.80
2022-09-20T10:36:59.439Z,17.70
2022-09-20T10:39:33.252Z,17.80
2022-09-20T10:42:41.333Z,17.90
2022-09-20T10:45:59.139Z,18.00
2022-09-20T10:48:31.776Z,18.10
2022-09-20T10:51:13.248Z,18.30
2022-09-20T10:53:56.546Z,18.40
2022-09-20T10:56:49.340Z,18.50
2022-09-20T10:59:27.260Z,18.40
2022-09-20T11:02:17.280Z,18.30
2022-09-20T11:05:24.468Z,18.30
2022-09-20T11:08:22.832Z,18.40
2022-09-20T11:11:05.358Z,18.40
2022-09-20T11:13:41.090Z,18.50
2022-09-20T11:16:23.326Z,18.70
2022-09-20T11:19:01.966Z,19.00
2022-09-20T11:21:51.214Z,19.10
2022-09-20T11:24:42.358Z,19.20
2022-09-20T11:27:23.324Z,19.20
2022-09-20T11:30:08.579Z,19.10
2022-09-20T11:32:42.534Z,19.00
2022-09-20T11:35:12.333Z,18.90
2022-09-20T11:37:50.124Z,18.80
2022-09-20T11:40:26.932Z,18.70
2022-09-20T11:42:57.213Z,18.50
2022-09-20T11:45:28.288Z,18.40
2022-09-20T11:48:04.269Z,18.40
2022-09-20T11:51:05.180Z,18.40
2022-09-20T11:53:36.949Z,18.30
2022-09-20T11:56:15.921Z,18.10
2022-09-20T11:58:51.999Z,18.00
2022-09-20T12:01:33.158Z,17.90
2022-09-20T12:04:31.159Z,17.70
2022-09-20T12:07:06.052Z,17.70
2022-09-20T12:09:43.241Z,17.60
2022-09-20T12:12:36.137Z,17.50
2022-09-20T12:15:07.596Z,17.50
2022-09-20T12:17:46.414Z,17.50
2022-09-20T12:20:51.510Z,17.60
2022-09-20T12:23:42.984Z,17.70
2022-09-20T12:26:15.277Z,17.80
2022-09-20T12:28:44.416Z,17.80
2022-09-20T12:31:26.130Z,18.00
2022-09-20T12:34:10.995Z,18.20
2022-09-20T12:36:38.948Z,18.30
2022-09-20T12:39:11.611Z,18.40
2022-09-20T12:42:03.045Z,18.50
2022-09-20T12:44:32.782Z,18.50
2022-09-20T12:47:05.218Z,18.50
2022-09-20T12:50:11.572Z,18.40
2022-09-20T12:52:53.041Z,18.40
2022-09-20T12:55:40.682Z,18.20
2022-09-20T12:58:16.409Z,18.10
2022-09-20T13:01:04.765Z,17.90
2022-09-20T13:03:43.573Z,17.90
2022-09-20T13:06:13.129Z,17.90
2022-09-20T13:08:48.002Z,17.80
2022-09-20T13:11:22.452Z,17.80
2022-09-20T13:13:57.618Z,17.80
2022-09-20T13:16:31.965Z,17.80
2022-09-20T13:19:16.464Z,17.90
2022-09-20T13:21:53.956Z,17.90
2022-09-20T13:24:21.136Z,18.00
2022-09-20T13:26:50.046Z,18.10
2022-09-20T13:29:32.206Z,18.20
2022-09-20T13:32:26.252Z,18.20
2022-09-20T13:35:22.300Z,18.20
2022-09-20T13:37:54.690Z,18.20
2022-09-20T13:40:24.484Z,18.50
2022-09-20T13:43:13.013Z,18.70
2022-09-20T13:45:43.517Z,18.90
2022-09-20T13:48:10.357Z,19.00
2022-09-20T13:50:44.908Z,19.00
2022-09-20T13:53:39.746Z,18.80
2022-09-20T13:56:25.655Z,18.70
2022-09-20T13:58:53.188Z,18.60
2022-09-20T14:01:36.900Z,18.60
2022-09-20T14:04:16.099Z,18.80
2022-09-20T14:06:43.034Z,18.80
2022-09-20T14:09:26.610Z,18.80
2022-09-20T14:11:53.931Z,18.80
2022-09-20T14:14:22.550Z,18.70
2022-09-20T14:16:50.605Z,18.60
2022-09-20T14:19:20.980Z,18.60
2022-09-20T14:21:49.002Z,18.50
2022-09-20T14:24:55.882Z,18.50
2022-09-20T14:27:22.987Z,18.50
2022-09-20T14:29:54.550Z,18.40
2022-09-20T14:32:21.859Z,18.30
2022-09-20T14:35:12.936Z,18.30
2022-09-20T14:37:45.628Z,18.30
2022-09-20T14:40:40.359Z,18.30
2022-09-20T14:43:19.065Z,18.40
2022-09-20T14:45:53.813Z,18.30
2022-09-20T14:48:21.732Z,18.30
2022-09-20T14:51:10.490Z,18.40
2022-09-20T14:53:38.297Z,18.40
2022-09-20T14:56:05.033Z,18.50
2022-09-20T14:58:52.043Z,18.50
2022-09-20T15:01:25.988Z,18.50
2022-09-20T15:03:53.040Z,18.50
2022-09-20T15:06:19.864Z,18.50
2022-09-20T15:08:47.034Z,18.50
2022-09-20T15:11:18.427Z,18.40
2022-09-20T15:13:45.927Z,18.30
2022-09-20T15:16:18.747Z,18.30
2022-09-20T15:18:45.727Z,18.30
2022-09-20T15:21:12.643Z,18.30
2022-09-20T15:23:39.989Z,18.20
2022-09-20T15:26:08.894Z,18.30
2022-09-20T15:28:35.656Z,18.30
2022-09-20T15:31:02.821Z,18.30
2022-09-20T15:33:31.371Z,18.10
2022-09-20T15:35:58.813Z,18.00
2022-09-20T15:38:27.144Z,18.00
2022-09-20T15:40:54.397Z,18.00
2022-09-20T15:43:25.820Z,18.10
2022-09-20T15:45:55.745Z,18.00
2022-09-20T15:48:24.751Z,18.00
2022-09-20T15:51:02.836Z,18.00
2022-09-20T15:53:35.042Z,17.90
2022-09-20T15:56:04.236Z,17.80
2022-09-20T15:58:36.733Z,17.80
2022-09-20T16:01:08.219Z,17.70
2022-09-20T16:03:36.339Z,17.40
2022-09-20T16:06:06.101Z,17.60
2022-09-20T16:08:37.651Z,17.60
2022-09-20T16:11:06.273Z,17.60
2022-09-20T16:13:33.185Z,17.60
2022-09-20T16:16:01.557Z,17.50
2022-09-20T16:18:47.965Z,17.40
2022-09-20T16:21:18.286Z,17.40
2022-09-20T16:23:54.642Z,17.30
2022-09-20T16:26:24.367Z,17.20
2022-09-20T16:28:51.846Z,17.10
2022-09-20T16:31:32.795Z,17.10
2022-09-20T16:34:00.440Z,17.00
2022-09-20T16:36:28.457Z,16.90
2022-09-20T16:38:57.088Z,16.90
2022-09-20T16:41:25.593Z,16.90
2022-09-20T16:43:53.563Z,16.80
2022-09-20T16:46:27.432Z,16.70
2022-09-20T16:48:55.616Z,16.70
2022-09-20T16:51:25.553Z,16.60
2022-09-20T16:53:56.190Z,16.50
2022-09-20T16:56:29.709Z,16.40
2022-09-20T16:58:56.913Z,16.30
2022-09-20T17:01:23.979Z,16.20
2022-09-20T17:03:51.760Z,16.10
2022-09-20T17:06:19.269Z,16.10
2022-09-20T17:08:46.842Z,16.00
2022-09-20T17:11:21.676Z,15.90
2022-09-20T17:13:51.388Z,15.80
2022-09-20T17:16:21.519Z,15.80
2022-09-20T17:18:54.120Z,15.70
2022-09-20T17:21:22.255Z,15.60
2022-09-20T17:23:55.287Z,15.50
2022-09-20T17:26:26.636Z,15.40
2022-09-20T17:28:58.456Z,15.40
2022-09-20T17:31:34.063Z,15.30
2022-09-20T17:34:02.493Z,15.20
2022-09-20T17:36:31.418Z,15.10
2022-09-20T17:39:03.907Z,15.10
2022-09-20T17:41:31.376Z,15.00
2022-09-20T17:43:59.639Z,14.90
2022-09-20T17:46:31.809Z,14.80
2022-09-20T17:49:01.258Z,14.80
2022-09-20T17:51:30.180Z,14.70
2022-09-20T17:53:58.048Z,14.70
2022-09-20T17:56:28.588Z,14.60
2022-09-20T17:58:56.788Z,14.50
2022-09-20T18:01:23.899Z,14.40
2022-09-20T18:03:50.946Z,14.40
2022-09-20T18:06:19.441Z,14.40
2022-09-20T18:08:51.701Z,14.30
2022-09-20T18:11:21.099Z,14.20
2022-09-20T18:13:47.947Z,14.10
2022-09-20T18:16:17.203Z,14.10
2022-09-20T18:18:46.318Z,14.00
2022-09-20T18:21:24.389Z,13.90
2022-09-20T18:23:52.040Z,13.90
2022-09-20T18:26:24.596Z,13.80
2022-09-20T18:29:01.568Z,13.80
2022-09-20T18:31:32.260Z,13.70
2022-09-20T18:34:00.895Z,13.60
2022-09-20T18:36:29.614Z,13.60
2022-09-20T18:38:57.880Z,13.80
2022-09-20T18:41:27.355Z,13.40
2022-09-20T18:43:55.329Z,13.40
2022-09-20T18:46:27.158Z,13.40
2022-09-20T18:48:55.503Z,13.30
2022-09-20T18:51:24.392Z,13.20
2022-09-20T18:53:51.481Z,13.20
2022-09-20T18:56:23.155Z,13.10
2022-09-20T18:58:51.658Z,13.10
2022-09-20T19:01:41.270Z,13.00
2022-09-20T19:04:29.877Z,12.90
2022-09-20T19:07:33.367Z,12.90
2022-09-20T19:10:06.490Z,12.80
2022-09-20T19:13:04.726Z,12.70
2022-09-20T19:15:41.085Z,12.70
2022-09-20T19:18:07.880Z,12.60
2022-09-20T19:20:48.656Z,12.60
2022-09-20T19:23:25.402Z,12.60
2022-09-20T19:26:06.105Z,12.50
2022-09-20T19:28:33.378Z,12.40
2022-09-20T19:31:01.006Z,12.40
2022-09-20T19:33:29.502Z,12.40
2022-09-20T19:35:59.232Z,12.30
2022-09-20T19:38:35.323Z,12.30
2022-09-20T19:41:18.168Z,12.30
2022-09-20T19:43:56.635Z,12.20
2022-09-20T19:46:55.079Z,12.20
2022-09-20T19:49:40.193Z,12.10
2022-09-20T19:52:13.449Z,12.10
2022-09-20T19:54:44.499Z,12.10
2022-09-20T19:57:26.016Z,12.00
2022-09-20T19:59:52.909Z,12.00
2022-09-20T20:02:19.941Z,12.00
2022-09-20T20:04:47.098Z,12.00
2022-09-20T20:07:39.129Z,11.90
2022-09-20T20:10:15.006Z,12.00
2022-09-20T20:13:02.790Z,11.90
2022-09-20T20:15:53.163Z,11.90
2022-09-20T20:18:28.148Z,11.90
2022-09-20T20:20:58.096Z,11.90
2022-09-20T20:23:47.982Z,11.80
2022-09-20T20:26:25.437Z,11.80
2022-09-20T20:28:53.078Z,11.70
2022-09-20T20:31:21.087Z,11.70
2022-09-20T20:33:51.680Z,11.70
2022-09-20T20:36:18.677Z,11.70
2022-09-20T20:38:49.946Z,11.60
2022-09-20T20:41:21.507Z,11.60
2022-09-20T20:43:57.317Z,11.50
2022-09-20T20:46:25.116Z,11.60
2022-09-20T20:48:51.934Z,11.60
2022-09-20T20:51:21.879Z,11.60
2022-09-20T20:53:51.492Z,11.60
2022-09-20T20:56:19.652Z,11.60
2022-09-20T20:58:48.088Z,11.50
2022-09-20T21:01:20.348Z,11.50
2022-09-20T21:03:50.267Z,11.40
2022-09-20T21:06:19.613Z,11.40
2022-09-20T21:08:49.477Z,11.40
2022-09-20T21:11:20.483Z,11.30
2022-09-20T21:13:50.480Z,11.20
2022-09-20T21:16:23.302Z,11.20
2022-09-20T21:18:50.978Z,11.20
2022-09-20T21:21:26.736Z,11.20
2022-09-20T21:23:56.233Z,11.10
2022-09-20T21:26:25.146Z,11.10
2022-09-20T21:28:54.313Z,11.00
2022-09-20T21:31:22.821Z,11.00
2022-09-20T21:33:50.275Z,11.00
2022-09-20T21:36:22.258Z,10.90
2022-09-20T21:38:49.483Z,10.90
2022-09-20T21:41:24.804Z,10.90
2022-09-20T21:43:56.868Z,10.80
2022-09-20T21:46:29.483Z,10.80
2022-09-20T21:48:58.240Z,10.60
2022-09-20T21:51:26.493Z,10.70
2022-09-20T21:53:56.518Z,10.60
2022-09-20T21:56:26.265Z,10.60
2022-09-20T21:58:53.436Z,10.60
2022-09-20T22:01:23.146Z,10.60
2022-09-20T22:03:56.605Z,10.60
2022-09-20T22:06:26.264Z,10.60
2022-09-20T22:08:58.548Z,10.60
2022-09-20T22:11:39.333Z,10.50
2022-09-20T22:14:07.196Z,10.60
2022-09-20T22:16:36.847Z,10.60
2022-09-20T22:19:04.784Z,10.50
2022-09-20T22:21:37.051Z,10.60
2022-09-20T22:24:07.415Z,10.60
2022-09-20T22:26:40.507Z,10.60
2022-09-20T22:29:07.926Z,10.70
2022-09-20T22:31:37.638Z,10.70
2022-09-20T22:34:06.466Z,10.80
2022-09-20T22:36:36.189Z,10.70
2022-09-20T22:39:05.179Z,10.80
2022-09-20T22:41:32.279Z,10.80
2022-09-20T22:43:59.136Z,10.90
2022-09-20T22:46:28.574Z,10.90
2022-09-20T22:48:56.112Z,10.90
2022-09-20T22:51:26.151Z,10.90
2022-09-20T22:53:53.412Z,11.00
2022-09-20T22:56:23.497Z,11.00
2022-09-20T22:58:55.795Z,11.00
2022-09-20T23:01:26.117Z,11.00
2022-09-20T23:03:57.523Z,11.00
2022-09-20T23:06:40.070Z,11.10
2022-09-20T23:09:10.142Z,11.00
2022-09-20T23:11:38.571Z,11.00
2022-09-20T23:14:06.824Z,11.00
2022-09-20T23:16:37.764Z,11.00
2022-09-20T23:19:06.535Z,10.90
2022-09-20T23:21:34.759Z,10.90
2022-09-20T23:24:04.083Z,10.90
2022-09-20T23:26:33.296Z,10.80
2022-09-20T23:29:10.358Z,10.80
2022-09-20T23:31:38.707Z,10.80
2022-09-20T23:34:06.815Z,10.80
2022-09-20T23:36:38.094Z,10.80
2022-09-20T23:39:07.116Z,10.80
2022-09-20T23:41:36.595Z,10.70
2022-09-20T23:44:06.609Z,10.70
2022-09-20T23:46:33.614Z,10.70
2022-09-20T23:49:00.615Z,10.70
2022-09-20T23:51:28.557Z,10.60
2022-09-20T23:53:56.129Z,10.60
2022-09-20T23:56:24.041Z,10.50
2022-09-20T23:58:51.570Z,10.60
